Chengde, China
Current Conditions -  °F | °C
As of 2:30 PM on Thursday 23 Oct 2014 (Local Time) from ZBAA Reporting Station
Haze Haze  
Wind Chill: 61°   Ceiling: Unl
Heat Index: 61°   Visibility: 3mi
Dew Point: 45°   Wind: 2mph
Humidity: 55%   Direction: NA
Pressure: 29.91"   Gusts: NA
Location:  40.96°N, 117.93°E
Report Text: ZBAA 230630Z VRB01MPS 5000 HZ NSC 16/07 Q1013 NOSIG
Loading
Personal Weather Stations






























Interactive Weather Map
Tropical Storm Tracking
New forecast layout! Learn more

10-Day Weather Forecast

Advertisements
Track Severe Weather on mobile